SWA3393 KSTL-KMYR
Flight info
| Callsign | SWA3393 |
|---|---|
| Flight time | 1h 28m |
| Altitude | 39000 |
| Route | DRUSE5 BNA SPA FLO |
| Aircraft | B737/M-SADE2E3GIJ4RWZ/LB1D1 |
Departure
| Time | 2026-05-09 15:32 |
|---|---|
| Airport | St. Louis Lambert International Airport (KSTL) |
Arrival
| Time | 2026-05-09 17:00 |
|---|---|
| Airport | Myrtle Beach International Airport (KMYR) |
| Time | Latitude | Longitude | Altitude | Speed | Heading |
|---|---|---|---|---|---|
| 2026-05-09 14:57 | 38.73836 | -90.35624 | 573 ft | 0 kts | 202° |
| 2026-05-09 15:22 | 38.73843 | -90.35621 | 575 ft | 4 kts | 204° |
| 2026-05-09 15:22 | 38.73866 | -90.35604 | 578 ft | 4 kts | 222° |
| 2026-05-09 15:22 | 38.73880 | -90.35578 | 575 ft | 4 kts | 273° |
| 2026-05-09 15:22 | 38.73878 | -90.35566 | 575 ft | 1 kts | 301° |
| 2026-05-09 15:27 | 38.73882 | -90.35576 | 577 ft | 6 kts | 300° |
| 2026-05-09 15:28 | 38.73916 | -90.35638 | 578 ft | 10 kts | 325° |
| 2026-05-09 15:28 | 38.73990 | -90.35609 | 580 ft | 13 kts | 30° |
| 2026-05-09 15:28 | 38.74061 | -90.35537 | 576 ft | 13 kts | 73° |
| 2026-05-09 15:28 | 38.74026 | -90.35434 | 580 ft | 13 kts | 122° |
| 2026-05-09 15:29 | 38.73977 | -90.35334 | 581 ft | 14 kts | 122° |
| 2026-05-09 15:29 | 38.73921 | -90.35221 | 586 ft | 15 kts | 122° |
| 2026-05-09 15:29 | 38.73866 | -90.35110 | 590 ft | 15 kts | 122° |
| 2026-05-09 15:29 | 38.73812 | -90.34999 | 592 ft | 17 kts | 122° |
| 2026-05-09 15:30 | 38.73749 | -90.34873 | 596 ft | 17 kts | 123° |
| 2026-05-09 15:30 | 38.73701 | -90.34763 | 597 ft | 13 kts | 96° |
| 2026-05-09 15:30 | 38.73754 | -90.34680 | 596 ft | 11 kts | 32° |
| 2026-05-09 15:30 | 38.73801 | -90.34697 | 596 ft | 9 kts | 302° |
| 2026-05-09 15:31 | 38.73884 | -90.34864 | 592 ft | 51 kts | 302° |
| 2026-05-09 15:31 | 38.74190 | -90.35483 | 579 ft | 114 kts | 302° |
| 2026-05-09 15:31 | 38.74710 | -90.36511 | 596 ft | 157 kts | 303° |
| 2026-05-09 15:31 | 38.75355 | -90.37707 | 1079 ft | 166 kts | 301° |
| 2026-05-09 15:32 | 38.76031 | -90.39046 | 1370 ft | 197 kts | 298° |
| 2026-05-09 15:32 | 38.76758 | -90.40592 | 1951 ft | 203 kts | 298° |
| 2026-05-09 15:32 | 38.77522 | -90.42199 | 2421 ft | 223 kts | 298° |
| 2026-05-09 15:32 | 38.78154 | -90.44104 | 2477 ft | 237 kts | 277° |
| 2026-05-09 15:33 | 38.78030 | -90.46186 | 2485 ft | 238 kts | 252° |
| 2026-05-09 15:33 | 38.77252 | -90.48089 | 2505 ft | 244 kts | 239° |
| 2026-05-09 15:33 | 38.76269 | -90.49899 | 2734 ft | 250 kts | 237° |
| 2026-05-09 15:33 | 38.75119 | -90.51581 | 3594 ft | 254 kts | 222° |
| 2026-05-09 15:34 | 38.73550 | -90.52698 | 4461 ft | 265 kts | 206° |
| 2026-05-09 15:34 | 38.71802 | -90.53503 | 5341 ft | 268 kts | 203° |
| 2026-05-09 15:34 | 38.69991 | -90.54165 | 6239 ft | 276 kts | 190° |
| 2026-05-09 15:34 | 38.68047 | -90.53883 | 7262 ft | 290 kts | 163° |
| 2026-05-09 15:35 | 38.66260 | -90.52614 | 8303 ft | 298 kts | 148° |
| 2026-05-09 15:35 | 38.64538 | -90.51065 | 9285 ft | 306 kts | 146° |
| 2026-05-09 15:35 | 38.62804 | -90.49462 | 10252 ft | 312 kts | 146° |
| 2026-05-09 15:35 | 38.61003 | -90.47811 | 10764 ft | 334 kts | 146° |
| 2026-05-09 15:36 | 38.59044 | -90.46044 | 11481 ft | 346 kts | 147° |
| 2026-05-09 15:36 | 38.57079 | -90.44290 | 12367 ft | 352 kts | 147° |
| 2026-05-09 15:36 | 38.55066 | -90.42469 | 13310 ft | 358 kts | 142° |
| 2026-05-09 15:36 | 38.53406 | -90.40065 | 14105 ft | 367 kts | 119° |
| 2026-05-09 15:37 | 38.52368 | -90.37066 | 14951 ft | 371 kts | 110° |
| 2026-05-09 15:37 | 38.51462 | -90.33948 | 15718 ft | 378 kts | 108° |
| 2026-05-09 15:37 | 38.50571 | -90.30760 | 16482 ft | 385 kts | 108° |
| 2026-05-09 15:37 | 38.49664 | -90.27512 | 17274 ft | 392 kts | 108° |
| 2026-05-09 15:38 | 38.48732 | -90.24219 | 18058 ft | 398 kts | 109° |
| 2026-05-09 15:38 | 38.47771 | -90.20867 | 18736 ft | 405 kts | 109° |
| 2026-05-09 15:38 | 38.46788 | -90.17477 | 19425 ft | 411 kts | 109° |
| 2026-05-09 15:38 | 38.45784 | -90.14037 | 20121 ft | 416 kts | 109° |
| 2026-05-09 15:39 | 38.44763 | -90.10556 | 20813 ft | 422 kts | 110° |
| 2026-05-09 15:39 | 38.43725 | -90.07022 | 21484 ft | 428 kts | 110° |
| 2026-05-09 15:39 | 38.42674 | -90.03450 | 22154 ft | 434 kts | 110° |
| 2026-05-09 15:39 | 38.41605 | -89.99822 | 22794 ft | 440 kts | 110° |
| 2026-05-09 15:40 | 38.40520 | -89.96143 | 23441 ft | 446 kts | 110° |
| 2026-05-09 15:40 | 38.39422 | -89.92426 | 24000 ft | 450 kts | 110° |
| 2026-05-09 15:40 | 38.38312 | -89.88672 | 24616 ft | 453 kts | 110° |
| 2026-05-09 15:40 | 38.37198 | -89.84907 | 25220 ft | 456 kts | 110° |
| 2026-05-09 15:41 | 38.36087 | -89.81159 | 25774 ft | 459 kts | 110° |
| 2026-05-09 15:41 | 38.34954 | -89.77338 | 26297 ft | 463 kts | 110° |
| 2026-05-09 15:41 | 38.33807 | -89.73481 | 26795 ft | 467 kts | 110° |
| 2026-05-09 15:41 | 38.32423 | -89.69729 | 27258 ft | 470 kts | 125° |
| 2026-05-09 15:42 | 38.30380 | -89.66484 | 27793 ft | 469 kts | 134° |
| 2026-05-09 15:42 | 38.28193 | -89.63387 | 28329 ft | 471 kts | 135° |
| 2026-05-09 15:42 | 38.25969 | -89.60299 | 28805 ft | 475 kts | 135° |
| 2026-05-09 15:42 | 38.23731 | -89.57184 | 29266 ft | 479 kts | 135° |
| 2026-05-09 15:43 | 38.21490 | -89.54034 | 29726 ft | 482 kts | 135° |
| 2026-05-09 15:43 | 38.19240 | -89.50840 | 30160 ft | 485 kts | 135° |
| 2026-05-09 15:43 | 38.16994 | -89.47629 | 30539 ft | 488 kts | 134° |
| 2026-05-09 15:43 | 38.14733 | -89.44388 | 30915 ft | 491 kts | 134° |
| 2026-05-09 15:44 | 38.12466 | -89.41136 | 31276 ft | 494 kts | 134° |
| 2026-05-09 15:44 | 38.10175 | -89.37852 | 31646 ft | 497 kts | 134° |
| 2026-05-09 15:44 | 38.07873 | -89.34557 | 32008 ft | 500 kts | 134° |
| 2026-05-09 15:44 | 38.05555 | -89.31245 | 32360 ft | 503 kts | 134° |
| 2026-05-09 15:45 | 38.03227 | -89.27922 | 32696 ft | 505 kts | 134° |
| 2026-05-09 15:45 | 38.00888 | -89.24589 | 33086 ft | 506 kts | 134° |
| 2026-05-09 15:45 | 37.98576 | -89.21297 | 33542 ft | 505 kts | 134° |
| 2026-05-09 15:45 | 37.96240 | -89.17973 | 34022 ft | 503 kts | 134° |
| 2026-05-09 15:46 | 37.93909 | -89.14662 | 34406 ft | 502 kts | 134° |
| 2026-05-09 15:46 | 37.91580 | -89.11356 | 34774 ft | 501 kts | 135° |
| 2026-05-09 15:46 | 37.89262 | -89.08069 | 35157 ft | 500 kts | 135° |
| 2026-05-09 15:46 | 37.86945 | -89.04787 | 35540 ft | 499 kts | 135° |
| 2026-05-09 15:47 | 37.84639 | -89.01523 | 35897 ft | 498 kts | 135° |
| 2026-05-09 15:47 | 37.82333 | -88.98262 | 36250 ft | 497 kts | 135° |
| 2026-05-09 15:47 | 37.80030 | -88.95012 | 36614 ft | 495 kts | 135° |
| 2026-05-09 15:47 | 37.77735 | -88.91778 | 36961 ft | 494 kts | 135° |
| 2026-05-09 15:48 | 37.75439 | -88.88548 | 37280 ft | 493 kts | 136° |
| 2026-05-09 15:48 | 37.73144 | -88.85321 | 37601 ft | 493 kts | 136° |
| 2026-05-09 15:48 | 37.70856 | -88.82107 | 37923 ft | 492 kts | 136° |
| 2026-05-09 15:48 | 37.68573 | -88.78902 | 38243 ft | 491 kts | 136° |
| 2026-05-09 15:49 | 37.66293 | -88.75702 | 38551 ft | 490 kts | 136° |
| 2026-05-09 15:49 | 37.64011 | -88.72504 | 38780 ft | 490 kts | 136° |
| 2026-05-09 15:49 | 37.61731 | -88.69314 | 38939 ft | 490 kts | 136° |
| 2026-05-09 15:49 | 37.59436 | -88.66107 | 38916 ft | 492 kts | 136° |
| 2026-05-09 15:50 | 37.54860 | -88.59718 | 38920 ft | 490 kts | 136° |
| 2026-05-09 15:50 | 37.50300 | -88.53360 | 38919 ft | 488 kts | 136° |
| 2026-05-09 15:51 | 37.45781 | -88.47072 | 38912 ft | 486 kts | 137° |
| 2026-05-09 15:51 | 37.41245 | -88.40771 | 38922 ft | 485 kts | 137° |
| 2026-05-09 15:52 | 37.34455 | -88.31363 | 38933 ft | 484 kts | 137° |
| 2026-05-09 15:53 | 37.29928 | -88.25106 | 38942 ft | 484 kts | 137° |
| 2026-05-09 15:53 | 37.25397 | -88.18862 | 38944 ft | 484 kts | 137° |
| 2026-05-09 15:54 | 37.20862 | -88.12623 | 38937 ft | 484 kts | 137° |
| 2026-05-09 15:54 | 37.16316 | -88.06380 | 38934 ft | 485 kts | 138° |
| 2026-05-09 15:55 | 37.11764 | -88.00137 | 38925 ft | 486 kts | 138° |
| 2026-05-09 15:55 | 37.07192 | -87.93879 | 38913 ft | 487 kts | 138° |
| 2026-05-09 15:56 | 37.02610 | -87.87620 | 38909 ft | 487 kts | 138° |
| 2026-05-09 15:56 | 36.98028 | -87.81372 | 38911 ft | 488 kts | 138° |
| 2026-05-09 15:57 | 36.93423 | -87.75106 | 38914 ft | 489 kts | 139° |
| 2026-05-09 15:57 | 36.88821 | -87.68854 | 38924 ft | 489 kts | 139° |
| 2026-05-09 15:58 | 36.84214 | -87.62610 | 38927 ft | 489 kts | 139° |
| 2026-05-09 15:58 | 36.79610 | -87.56380 | 38933 ft | 488 kts | 139° |
| 2026-05-09 15:59 | 36.74997 | -87.50149 | 38911 ft | 488 kts | 139° |
| 2026-05-09 15:59 | 36.71169 | -87.44988 | 38915 ft | 488 kts | 139° |
| 2026-05-09 16:00 | 36.66555 | -87.38777 | 38940 ft | 488 kts | 139° |
| 2026-05-09 16:00 | 36.61946 | -87.32585 | 38938 ft | 488 kts | 140° |
| 2026-05-09 16:01 | 36.57318 | -87.26385 | 38933 ft | 488 kts | 140° |
| 2026-05-09 16:01 | 36.52691 | -87.20201 | 38928 ft | 489 kts | 140° |
| 2026-05-09 16:02 | 36.48060 | -87.14020 | 38923 ft | 489 kts | 140° |
| 2026-05-09 16:02 | 36.41097 | -87.04746 | 38918 ft | 490 kts | 140° |
| 2026-05-09 16:03 | 36.36446 | -86.98564 | 38907 ft | 490 kts | 140° |
| 2026-05-09 16:03 | 36.31809 | -86.92415 | 38919 ft | 491 kts | 141° |
| 2026-05-09 16:04 | 36.27129 | -86.86221 | 38931 ft | 493 kts | 141° |
| 2026-05-09 16:04 | 36.22430 | -86.80010 | 38925 ft | 494 kts | 141° |
| 2026-05-09 16:05 | 36.17718 | -86.73793 | 38962 ft | 495 kts | 141° |
| 2026-05-09 16:05 | 36.13433 | -86.67041 | 38947 ft | 514 kts | 119° |
| 2026-05-09 16:06 | 36.11366 | -86.58559 | 38964 ft | 522 kts | 108° |
| 2026-05-09 16:06 | 36.09665 | -86.49839 | 38976 ft | 522 kts | 107° |
| 2026-05-09 16:07 | 36.07924 | -86.41124 | 38964 ft | 522 kts | 108° |
| 2026-05-09 16:07 | 36.06108 | -86.32442 | 38963 ft | 521 kts | 109° |
| 2026-05-09 16:08 | 36.04257 | -86.23773 | 38943 ft | 522 kts | 109° |
| 2026-05-09 16:08 | 36.02397 | -86.15109 | 38946 ft | 522 kts | 110° |
| 2026-05-09 16:09 | 36.00533 | -86.06438 | 38946 ft | 523 kts | 110° |
| 2026-05-09 16:09 | 35.98663 | -85.97752 | 38952 ft | 523 kts | 110° |
| 2026-05-09 16:10 | 35.96786 | -85.89072 | 38958 ft | 525 kts | 110° |
| 2026-05-09 16:10 | 35.94893 | -85.80353 | 38961 ft | 526 kts | 110° |
| 2026-05-09 16:11 | 35.92990 | -85.71616 | 38969 ft | 528 kts | 110° |
| 2026-05-09 16:11 | 35.91070 | -85.62839 | 38964 ft | 531 kts | 111° |
| 2026-05-09 16:12 | 35.89138 | -85.54038 | 38964 ft | 532 kts | 111° |
| 2026-05-09 16:12 | 35.87209 | -85.45280 | 38966 ft | 534 kts | 111° |
| 2026-05-09 16:13 | 35.85254 | -85.36443 | 38963 ft | 536 kts | 111° |
| 2026-05-09 16:13 | 35.83277 | -85.27545 | 38976 ft | 539 kts | 111° |
| 2026-05-09 16:14 | 35.81288 | -85.18621 | 38973 ft | 541 kts | 111° |
| 2026-05-09 16:14 | 35.79288 | -85.09679 | 38974 ft | 542 kts | 112° |
| 2026-05-09 16:15 | 35.77279 | -85.00728 | 38958 ft | 542 kts | 112° |
| 2026-05-09 16:15 | 35.75260 | -84.91774 | 38962 ft | 543 kts | 112° |
| 2026-05-09 16:16 | 35.73238 | -84.82835 | 38955 ft | 543 kts | 112° |
| 2026-05-09 16:16 | 35.71214 | -84.73926 | 38961 ft | 543 kts | 112° |
| 2026-05-09 16:17 | 35.69174 | -84.64980 | 38959 ft | 543 kts | 112° |
| 2026-05-09 16:17 | 35.67123 | -84.56021 | 38964 ft | 544 kts | 112° |
| 2026-05-09 16:18 | 35.65062 | -84.47050 | 38975 ft | 544 kts | 112° |
| 2026-05-09 16:18 | 35.62991 | -84.38070 | 38980 ft | 545 kts | 112° |
| 2026-05-09 16:19 | 35.60929 | -84.29161 | 38974 ft | 545 kts | 112° |
| 2026-05-09 16:19 | 35.58846 | -84.20190 | 38971 ft | 545 kts | 112° |
| 2026-05-09 16:20 | 35.56754 | -84.11218 | 38961 ft | 546 kts | 112° |
| 2026-05-09 16:20 | 35.54657 | -84.02257 | 38929 ft | 546 kts | 113° |
| 2026-05-09 16:21 | 35.52551 | -83.93306 | 38850 ft | 546 kts | 113° |
| 2026-05-09 16:21 | 35.50443 | -83.84364 | 38923 ft | 544 kts | 113° |
| 2026-05-09 16:22 | 35.48333 | -83.75444 | 38972 ft | 545 kts | 113° |
| 2026-05-09 16:22 | 35.46206 | -83.66496 | 38964 ft | 551 kts | 113° |
| 2026-05-09 16:23 | 35.44050 | -83.57442 | 38952 ft | 553 kts | 113° |
| 2026-05-09 16:23 | 35.41878 | -83.48357 | 38944 ft | 554 kts | 113° |
| 2026-05-09 16:24 | 35.39714 | -83.39336 | 38942 ft | 555 kts | 113° |
| 2026-05-09 16:24 | 35.37534 | -83.30289 | 38945 ft | 552 kts | 113° |
| 2026-05-09 16:25 | 35.35354 | -83.21271 | 38953 ft | 551 kts | 113° |
| 2026-05-09 16:25 | 35.33166 | -83.12263 | 38946 ft | 552 kts | 113° |
| 2026-05-09 16:26 | 35.30969 | -83.03250 | 38939 ft | 552 kts | 113° |
| 2026-05-09 16:26 | 35.28766 | -82.94237 | 38915 ft | 552 kts | 113° |
| 2026-05-09 16:27 | 35.26572 | -82.85290 | 38825 ft | 552 kts | 114° |
| 2026-05-09 16:27 | 35.24363 | -82.76321 | 38932 ft | 549 kts | 114° |
| 2026-05-09 16:28 | 35.22153 | -82.67378 | 38968 ft | 550 kts | 114° |
| 2026-05-09 16:28 | 35.19937 | -82.58446 | 38975 ft | 553 kts | 113° |
| 2026-05-09 16:29 | 35.17691 | -82.49426 | 38948 ft | 555 kts | 114° |
| 2026-05-09 16:29 | 35.15431 | -82.40374 | 38903 ft | 557 kts | 114° |
| 2026-05-09 16:30 | 35.13163 | -82.31319 | 38916 ft | 558 kts | 114° |
| 2026-05-09 16:30 | 35.10886 | -82.22255 | 38959 ft | 559 kts | 114° |
| 2026-05-09 16:31 | 35.08596 | -82.13182 | 38965 ft | 559 kts | 114° |
| 2026-05-09 16:31 | 35.06297 | -82.04100 | 38963 ft | 560 kts | 114° |
| 2026-05-09 16:32 | 35.04381 | -81.96553 | 38968 ft | 559 kts | 114° |
| 2026-05-09 16:32 | 35.01361 | -81.86210 | 38967 ft | 553 kts | 120° |
| 2026-05-09 16:33 | 34.98357 | -81.77594 | 38959 ft | 550 kts | 121° |
| 2026-05-09 16:33 | 34.95325 | -81.69014 | 38952 ft | 550 kts | 121° |
| 2026-05-09 16:34 | 34.92342 | -81.60419 | 38945 ft | 550 kts | 120° |
| 2026-05-09 16:34 | 34.89406 | -81.51884 | 38956 ft | 547 kts | 120° |
| 2026-05-09 16:35 | 34.87955 | -81.47649 | 38930 ft | 535 kts | 120° |
| 2026-05-09 16:35 | 34.86541 | -81.43519 | 38934 ft | 521 kts | 120° |
| 2026-05-09 16:35 | 34.85157 | -81.39487 | 38953 ft | 508 kts | 121° |
| 2026-05-09 16:35 | 34.83803 | -81.35563 | 38957 ft | 500 kts | 121° |
| 2026-05-09 16:36 | 34.78239 | -81.19669 | 39011 ft | 523 kts | 121° |
| 2026-05-09 16:37 | 34.75409 | -81.11556 | 39009 ft | 526 kts | 120° |
| 2026-05-09 16:37 | 34.72560 | -81.03380 | 38546 ft | 524 kts | 121° |
| 2026-05-09 16:38 | 34.71123 | -80.99275 | 37731 ft | 529 kts | 120° |
| 2026-05-09 16:38 | 34.69669 | -80.95140 | 36843 ft | 535 kts | 120° |
| 2026-05-09 16:38 | 34.68200 | -80.90967 | 35983 ft | 540 kts | 120° |
| 2026-05-09 16:38 | 34.66714 | -80.86747 | 35134 ft | 543 kts | 119° |
| 2026-05-09 16:39 | 34.65230 | -80.82530 | 34479 ft | 541 kts | 119° |
| 2026-05-09 16:39 | 34.63761 | -80.78349 | 34021 ft | 535 kts | 119° |
| 2026-05-09 16:39 | 34.62309 | -80.74221 | 33535 ft | 527 kts | 119° |
| 2026-05-09 16:39 | 34.60892 | -80.70198 | 33030 ft | 521 kts | 119° |
| 2026-05-09 16:40 | 34.59453 | -80.66126 | 32493 ft | 515 kts | 120° |
| 2026-05-09 16:40 | 34.58061 | -80.62199 | 31953 ft | 511 kts | 120° |
| 2026-05-09 16:42 | 34.48512 | -80.35403 | 28471 ft | 476 kts | 120° |
| 2026-05-09 16:42 | 34.47200 | -80.31738 | 27948 ft | 471 kts | 120° |
| 2026-05-09 16:42 | 34.45918 | -80.28159 | 27437 ft | 466 kts | 120° |
| 2026-05-09 16:42 | 34.44629 | -80.24569 | 26931 ft | 461 kts | 119° |
| 2026-05-09 16:43 | 34.43356 | -80.21025 | 26449 ft | 457 kts | 119° |
| 2026-05-09 16:43 | 34.42090 | -80.17507 | 25967 ft | 452 kts | 119° |
| 2026-05-09 16:43 | 34.40836 | -80.14024 | 25492 ft | 448 kts | 119° |
| 2026-05-09 16:43 | 34.39599 | -80.10592 | 25032 ft | 443 kts | 119° |
| 2026-05-09 16:44 | 34.38366 | -80.07175 | 24556 ft | 439 kts | 118° |
| 2026-05-09 16:44 | 34.37147 | -80.03799 | 24083 ft | 435 kts | 118° |
| 2026-05-09 16:44 | 34.35949 | -80.00488 | 23629 ft | 431 kts | 118° |
| 2026-05-09 16:44 | 34.34751 | -79.97176 | 23102 ft | 427 kts | 118° |
| 2026-05-09 16:45 | 34.33563 | -79.93896 | 22570 ft | 423 kts | 118° |
| 2026-05-09 16:45 | 34.32387 | -79.90653 | 22083 ft | 418 kts | 118° |
| 2026-05-09 16:45 | 34.31612 | -79.88518 | 21753 ft | 415 kts | 118° |
| 2026-05-09 16:45 | 34.30457 | -79.85337 | 21256 ft | 410 kts | 118° |
| 2026-05-09 16:46 | 34.29317 | -79.82201 | 20756 ft | 406 kts | 118° |
| 2026-05-09 16:46 | 34.28184 | -79.79089 | 20263 ft | 402 kts | 118° |
| 2026-05-09 16:46 | 34.27062 | -79.76009 | 19783 ft | 398 kts | 118° |
| 2026-05-09 16:46 | 34.25953 | -79.72965 | 19321 ft | 394 kts | 117° |
| 2026-05-09 16:47 | 34.24854 | -79.69954 | 18861 ft | 389 kts | 117° |
| 2026-05-09 16:47 | 34.23766 | -79.66974 | 18407 ft | 385 kts | 117° |
| 2026-05-09 16:47 | 34.22585 | -79.64101 | 17869 ft | 379 kts | 124° |
| 2026-05-09 16:47 | 34.21209 | -79.61397 | 17250 ft | 376 kts | 127° |
| 2026-05-09 16:48 | 34.19781 | -79.58762 | 16650 ft | 374 kts | 128° |
| 2026-05-09 16:48 | 34.18343 | -79.56144 | 16054 ft | 372 kts | 128° |
| 2026-05-09 16:48 | 34.16925 | -79.53548 | 15467 ft | 369 kts | 127° |
| 2026-05-09 16:48 | 34.15527 | -79.50966 | 14897 ft | 366 kts | 127° |
| 2026-05-09 16:49 | 34.14146 | -79.48395 | 14328 ft | 363 kts | 127° |
| 2026-05-09 16:49 | 34.12783 | -79.45845 | 13767 ft | 359 kts | 126° |
| 2026-05-09 16:49 | 34.11458 | -79.43358 | 13120 ft | 355 kts | 126° |
| 2026-05-09 16:50 | 34.08830 | -79.38420 | 11857 ft | 345 kts | 126° |
| 2026-05-09 16:50 | 34.07545 | -79.36007 | 11246 ft | 340 kts | 126° |
| 2026-05-09 16:50 | 34.06275 | -79.33623 | 10644 ft | 335 kts | 126° |
| 2026-05-09 16:50 | 34.05020 | -79.31270 | 10060 ft | 331 kts | 126° |
| 2026-05-09 16:51 | 34.03780 | -79.28946 | 9429 ft | 327 kts | 126° |
| 2026-05-09 16:51 | 34.02554 | -79.26651 | 8785 ft | 323 kts | 125° |
| 2026-05-09 16:51 | 34.01339 | -79.24379 | 8190 ft | 320 kts | 125° |
| 2026-05-09 16:51 | 34.00140 | -79.22137 | 7560 ft | 317 kts | 125° |
| 2026-05-09 16:52 | 33.98962 | -79.19933 | 7065 ft | 308 kts | 125° |
| 2026-05-09 16:52 | 33.97812 | -79.17784 | 6588 ft | 301 kts | 124° |
| 2026-05-09 16:52 | 33.96700 | -79.15707 | 6129 ft | 287 kts | 124° |
| 2026-05-09 16:52 | 33.95643 | -79.13733 | 5610 ft | 275 kts | 124° |
| 2026-05-09 16:53 | 33.94629 | -79.11842 | 5112 ft | 264 kts | 124° |
| 2026-05-09 16:53 | 33.93645 | -79.10009 | 4620 ft | 257 kts | 124° |
| 2026-05-09 16:53 | 33.92683 | -79.08217 | 4136 ft | 251 kts | 123° |
| 2026-05-09 16:53 | 33.91768 | -79.06514 | 3755 ft | 240 kts | 123° |
| 2026-05-09 16:54 | 33.90882 | -79.04863 | 3357 ft | 229 kts | 123° |
| 2026-05-09 16:54 | 33.90039 | -79.03295 | 3040 ft | 215 kts | 122° |
| 2026-05-09 16:54 | 33.89251 | -79.01830 | 2798 ft | 201 kts | 122° |
| 2026-05-09 16:54 | 33.88510 | -79.00453 | 2617 ft | 190 kts | 122° |
| 2026-05-09 16:55 | 33.87814 | -78.99160 | 2431 ft | 178 kts | 122° |
| 2026-05-09 16:55 | 33.87131 | -78.97959 | 2276 ft | 171 kts | 133° |
| 2026-05-09 16:55 | 33.86062 | -78.97384 | 2163 ft | 173 kts | 171° |
| 2026-05-09 16:55 | 33.84853 | -78.97108 | 2066 ft | 180 kts | 166° |
| 2026-05-09 16:56 | 33.83625 | -78.96781 | 2004 ft | 179 kts | 166° |
| 2026-05-09 16:56 | 33.82437 | -78.96470 | 1977 ft | 171 kts | 167° |
| 2026-05-09 16:56 | 33.81279 | -78.96174 | 2003 ft | 169 kts | 167° |
| 2026-05-09 16:56 | 33.80133 | -78.95881 | 1972 ft | 168 kts | 167° |
| 2026-05-09 16:57 | 33.78975 | -78.95588 | 1780 ft | 170 kts | 166° |
| 2026-05-09 16:57 | 33.77834 | -78.95296 | 1601 ft | 169 kts | 166° |
| 2026-05-09 16:57 | 33.76726 | -78.95015 | 1433 ft | 154 kts | 166° |
| 2026-05-09 16:57 | 33.75703 | -78.94758 | 1267 ft | 149 kts | 166° |
| 2026-05-09 16:58 | 33.74687 | -78.94514 | 1134 ft | 148 kts | 167° |
| 2026-05-09 16:58 | 33.73665 | -78.94266 | 878 ft | 153 kts | 167° |
| 2026-05-09 16:58 | 33.72634 | -78.94017 | 725 ft | 149 kts | 166° |
| 2026-05-09 16:58 | 33.71628 | -78.93759 | 528 ft | 146 kts | 165° |
| 2026-05-09 16:59 | 33.70675 | -78.93510 | 333 ft | 141 kts | 166° |
| 2026-05-09 16:59 | 33.69747 | -78.93277 | 161 ft | 135 kts | 165° |
| 2026-05-09 16:59 | 33.68819 | -78.93042 | 32 ft | 134 kts | 167° |
| 2026-05-09 16:59 | 33.68046 | -78.92849 | 31 ft | 92 kts | 168° |
| 2026-05-09 17:00 | 33.67543 | -78.92724 | 31 ft | 51 kts | 168° |
| 2026-05-09 17:00 | 33.67415 | -78.92745 | 31 ft | 7 kts | 272° |
| 2026-05-09 17:00 | 33.67414 | -78.92799 | 31 ft | 8 kts | 262° |
| 2026-05-09 17:00 | 33.67402 | -78.92873 | 31 ft | 11 kts | 258° |
| 2026-05-09 17:01 | 33.67385 | -78.92977 | 31 ft | 15 kts | 263° |
| 2026-05-09 17:01 | 33.67377 | -78.93064 | 30 ft | 4 kts | 198° |
| 2026-05-09 17:01 | 33.67364 | -78.93033 | 30 ft | 10 kts | 71° |
| 2026-05-09 17:01 | 33.67390 | -78.92938 | 30 ft | 15 kts | 79° |
| 2026-05-09 17:02 | 33.67415 | -78.92792 | 31 ft | 19 kts | 78° |
| 2026-05-09 17:02 | 33.67374 | -78.92682 | 31 ft | 16 kts | 165° |
| 2026-05-09 17:02 | 33.67302 | -78.92620 | 31 ft | 13 kts | 94° |
| 2026-05-09 17:02 | 33.67318 | -78.92517 | 31 ft | 12 kts | 77° |
| 2026-05-09 17:03 | 33.67382 | -78.92484 | 31 ft | 12 kts | 346° |
| 2026-05-09 17:04 | 33.68182 | -78.92579 | 31 ft | 11 kts | 83° |
| 2026-05-09 17:05 | 33.68234 | -78.92522 | 31 ft | 10 kts | 41° |
| 2026-05-09 17:05 | 33.68255 | -78.92452 | 31 ft | 6 kts | 93° |
| 2026-05-09 17:05 | 33.68253 | -78.92417 | 31 ft | 1 kts | 93° |
| 2026-05-09 17:05 | 33.68253 | -78.92415 | 31 ft | 0 kts | 93° |